createdAt,value
2019-03-27T00:01:29.258Z,96.20
2019-03-27T00:03:58.754Z,96.50
2019-03-27T00:06:28.123Z,96.60
2019-03-27T00:08:57.451Z,96.70
2019-03-27T00:11:26.804Z,96.90
2019-03-27T00:13:56.278Z,96.80
2019-03-27T00:16:25.610Z,96.80
2019-03-27T00:18:55.013Z,96.70
2019-03-27T00:21:24.363Z,96.70
2019-03-27T00:23:53.732Z,96.50
2019-03-27T00:26:23.083Z,96.50
2019-03-27T00:28:52.435Z,96.50
2019-03-27T00:31:21.786Z,96.60
2019-03-27T00:33:51.105Z,96.60
2019-03-27T00:36:20.439Z,96.80
2019-03-27T00:38:49.959Z,96.80
2019-03-27T00:41:19.312Z,96.80
2019-03-27T00:43:49.773Z,97.20
2019-03-27T00:46:19.105Z,96.90
2019-03-27T00:48:48.473Z,96.90
2019-03-27T00:51:17.905Z,96.90
2019-03-27T00:53:47.243Z,96.90
2019-03-27T00:56:16.646Z,97.10
2019-03-27T00:58:46.293Z,97.00
2019-03-27T01:01:15.793Z,96.90
2019-03-27T01:03:48.415Z,97.10
2019-03-27T01:06:17.960Z,97.10
2019-03-27T01:08:50.347Z,97.10
2019-03-27T01:11:19.695Z,97.10
2019-03-27T01:13:49.055Z,97.30
2019-03-27T01:16:18.390Z,97.50
2019-03-27T01:19:08.712Z,97.50
2019-03-27T01:21:38.270Z,97.50
2019-03-27T01:24:07.594Z,97.50
2019-03-27T01:26:36.930Z,97.80
2019-03-27T01:29:06.322Z,97.80
2019-03-27T01:31:35.655Z,97.80
2019-03-27T01:34:04.990Z,98.00
2019-03-27T01:36:34.360Z,98.00
2019-03-27T01:39:05.461Z,98.10
2019-03-27T01:41:34.787Z,98.30
2019-03-27T01:44:04.139Z,98.40
2019-03-27T01:46:33.483Z,98.50
2019-03-27T01:49:02.811Z,98.30
2019-03-27T01:51:32.140Z,98.80
2019-03-27T01:54:01.495Z,98.50
2019-03-27T01:56:30.822Z,98.80
2019-03-27T01:59:00.147Z,98.60
2019-03-27T02:01:29.502Z,98.60
2019-03-27T02:03:59.874Z,98.60
2019-03-27T02:06:29.235Z,98.70
2019-03-27T02:08:58.559Z,98.80
2019-03-27T02:11:27.888Z,98.60
2019-03-27T02:13:57.417Z,98.50
2019-03-27T02:16:26.753Z,98.60
2019-03-27T02:18:56.086Z,98.60
2019-03-27T02:21:25.495Z,98.70
2019-03-27T02:23:54.839Z,98.90
2019-03-27T02:26:24.159Z,99.00
2019-03-27T02:28:53.488Z,99.00
2019-03-27T02:31:22.857Z,98.90
2019-03-27T02:33:52.173Z,98.90
2019-03-27T02:36:21.777Z,99.10
2019-03-27T02:38:51.117Z,99.00
2019-03-27T02:41:20.464Z,99.10
2019-03-27T02:43:50.827Z,99.10
2019-03-27T02:46:24.860Z,99.10
2019-03-27T02:48:51.309Z,99.10
2019-03-27T02:51:20.647Z,99.00
2019-03-27T02:53:49.959Z,99.10
2019-03-27T02:56:19.326Z,99.30
2019-03-27T02:58:48.764Z,99.30
2019-03-27T03:01:18.739Z,99.30
2019-03-27T03:03:48.121Z,99.40
2019-03-27T03:06:30.089Z,99.30
2019-03-27T03:08:59.760Z,99.10
2019-03-27T03:11:29.748Z,99.20
2019-03-27T03:13:59.188Z,99.10
2019-03-27T03:16:41.266Z,99.20
2019-03-27T03:18:59.556Z,99.20
2019-03-27T03:21:28.910Z,99.10
2019-03-27T03:23:58.511Z,99.10
2019-03-27T03:26:27.846Z,99.00
2019-03-27T03:28:57.176Z,99.20
2019-03-27T03:31:26.544Z,99.10
2019-03-27T03:33:56.992Z,99.20
2019-03-27T03:36:27.892Z,99.10
2019-03-27T03:38:57.232Z,99.30
2019-03-27T03:41:26.642Z,99.30
2019-03-27T03:43:56.088Z,99.20
2019-03-27T03:46:25.446Z,99.10
2019-03-27T03:48:54.885Z,99.10
2019-03-27T03:51:27.834Z,98.90
2019-03-27T03:53:57.253Z,98.90
2019-03-27T03:56:28.097Z,99.00
2019-03-27T03:58:58.378Z,98.90
2019-03-27T04:01:29.181Z,98.90
2019-03-27T04:03:58.585Z,98.90
2019-03-27T04:06:27.961Z,99.00
2019-03-27T04:08:57.323Z,98.90
2019-03-27T04:11:26.737Z,98.90
2019-03-27T04:13:57.074Z,98.90
2019-03-27T04:16:26.462Z,98.90
2019-03-27T04:18:55.810Z,98.80
2019-03-27T04:21:26.922Z,98.90
2019-03-27T04:23:56.275Z,99.10
2019-03-27T04:26:25.709Z,98.90
2019-03-27T04:28:55.099Z,98.90
2019-03-27T04:31:24.443Z,98.90
2019-03-27T04:33:53.873Z,98.80
2019-03-27T04:36:23.245Z,98.70
2019-03-27T04:38:52.638Z,98.90
2019-03-27T04:41:21.962Z,98.90
2019-03-27T04:43:51.298Z,98.90
2019-03-27T04:46:20.654Z,98.90
2019-03-27T04:48:50.049Z,98.90
2019-03-27T04:51:19.439Z,98.70
2019-03-27T04:53:48.794Z,98.80
2019-03-27T04:56:18.179Z,98.80
2019-03-27T04:58:47.596Z,98.60
2019-03-27T05:01:16.944Z,98.60
2019-03-27T05:03:46.355Z,98.60
2019-03-27T05:06:15.704Z,98.70
2019-03-27T05:08:45.102Z,98.50
2019-03-27T05:11:14.448Z,98.50
2019-03-27T05:13:43.806Z,98.40
2019-03-27T05:16:13.197Z,98.60
2019-03-27T05:18:43.672Z,98.60
2019-03-27T05:21:12.998Z,98.40
2019-03-27T05:23:42.347Z,98.40
2019-03-27T05:26:11.670Z,98.40
2019-03-27T05:28:41.011Z,98.50
2019-03-27T05:31:11.629Z,98.40
2019-03-27T05:33:40.989Z,98.30
2019-03-27T05:36:10.333Z,98.30
2019-03-27T05:38:40.853Z,98.30
2019-03-27T05:41:10.983Z,98.30
2019-03-27T05:43:43.415Z,98.40
2019-03-27T05:46:12.745Z,98.50
2019-03-27T05:48:43.491Z,98.50
2019-03-27T05:51:12.922Z,98.40
2019-03-27T05:53:42.394Z,98.40
2019-03-27T05:56:11.741Z,98.30
2019-03-27T05:58:41.106Z,98.30
2019-03-27T06:01:10.531Z,98.20
2019-03-27T06:03:39.952Z,98.30
2019-03-27T06:06:09.370Z,98.30
2019-03-27T06:08:38.759Z,98.30
2019-03-27T06:11:08.163Z,98.20
2019-03-27T06:13:37.517Z,98.10
2019-03-27T06:16:06.838Z,98.00
2019-03-27T06:18:36.235Z,98.20
2019-03-27T06:21:06.544Z,98.00
2019-03-27T06:23:35.887Z,97.90
2019-03-27T06:26:05.221Z,98.00
2019-03-27T06:28:34.544Z,98.00
2019-03-27T06:31:03.876Z,97.90
2019-03-27T06:33:33.298Z,97.50
2019-03-27T06:36:02.629Z,97.40
2019-03-27T06:38:32.919Z,97.40
2019-03-27T06:41:02.279Z,97.00
2019-03-27T06:43:31.652Z,96.90
2019-03-27T06:46:01.109Z,96.90
2019-03-27T06:48:30.523Z,96.90
2019-03-27T06:51:04.353Z,96.60
2019-03-27T06:53:33.602Z,96.70
2019-03-27T06:56:02.915Z,96.80
2019-03-27T06:58:32.247Z,96.70
2019-03-27T07:01:01.599Z,96.70
2019-03-27T07:03:30.971Z,96.40
2019-03-27T07:06:00.383Z,96.10
2019-03-27T07:08:29.712Z,96.10
2019-03-27T07:10:59.053Z,95.90
2019-03-27T07:13:28.767Z,95.50
2019-03-27T07:15:58.106Z,95.00
2019-03-27T07:18:40.072Z,94.90
2019-03-27T07:21:02.684Z,95.00
2019-03-27T07:23:42.708Z,94.70
2019-03-27T07:26:14.383Z,94.60
2019-03-27T07:28:43.847Z,94.40
2019-03-27T07:31:13.263Z,94.00
2019-03-27T07:33:42.618Z,93.60
2019-03-27T07:36:12.012Z,93.20
2019-03-27T07:38:41.432Z,93.10
2019-03-27T07:41:10.780Z,92.70
2019-03-27T07:43:40.221Z,92.40
2019-03-27T07:46:09.539Z,92.00
2019-03-27T07:48:38.873Z,92.00
2019-03-27T07:51:08.292Z,91.60
2019-03-27T07:53:37.661Z,91.40
2019-03-27T07:56:08.150Z,91.10
2019-03-27T07:58:37.567Z,90.10
2019-03-27T08:01:06.904Z,90.20
2019-03-27T08:03:36.247Z,90.10
2019-03-27T08:06:05.863Z,90.30
2019-03-27T08:08:35.203Z,90.40
2019-03-27T08:11:04.587Z,90.50
2019-03-27T08:13:33.950Z,90.30
2019-03-27T08:16:03.329Z,89.80
2019-03-27T08:18:34.115Z,90.20
2019-03-27T08:21:03.540Z,90.20
2019-03-27T08:23:32.950Z,89.20
2019-03-27T08:26:02.265Z,89.30
2019-03-27T08:28:31.612Z,89.30
2019-03-27T08:31:00.951Z,89.30
2019-03-27T08:33:30.287Z,89.50
2019-03-27T08:35:59.625Z,88.20
2019-03-27T08:38:28.947Z,88.40
2019-03-27T08:40:58.279Z,88.50
2019-03-27T08:43:27.618Z,88.40
2019-03-27T08:45:56.947Z,88.50
2019-03-27T08:48:26.273Z,88.70
2019-03-27T08:50:55.614Z,88.50
2019-03-27T08:53:24.930Z,88.60
2019-03-27T08:55:54.251Z,87.90
2019-03-27T08:58:23.611Z,87.80
2019-03-27T09:00:54.124Z,88.50
2019-03-27T09:03:23.833Z,87.70
2019-03-27T09:05:54.412Z,87.50
2019-03-27T09:08:23.797Z,87.80
2019-03-27T09:10:53.152Z,87.90
2019-03-27T09:13:22.482Z,88.00
2019-03-27T09:15:52.882Z,89.10
2019-03-27T09:18:22.223Z,89.40
2019-03-27T09:20:51.566Z,89.20
2019-03-27T09:23:20.904Z,87.20
2019-03-27T09:25:50.229Z,87.30
2019-03-27T09:28:19.610Z,87.60
2019-03-27T09:30:48.955Z,86.30
2019-03-27T09:33:18.284Z,85.20
2019-03-27T09:35:47.670Z,83.30
2019-03-27T09:38:17.024Z,82.60
2019-03-27T09:40:46.357Z,83.00
2019-03-27T09:43:15.704Z,82.50
2019-03-27T09:45:45.041Z,84.30
2019-03-27T09:48:14.364Z,84.80
2019-03-27T09:50:43.710Z,84.80
2019-03-27T09:53:13.064Z,85.20
2019-03-27T09:55:42.464Z,84.80
2019-03-27T09:58:11.867Z,85.30
2019-03-27T10:00:53.035Z,84.50
2019-03-27T10:03:22.444Z,83.60
2019-03-27T10:05:51.915Z,84.70
2019-03-27T10:08:24.569Z,84.80
2019-03-27T10:10:53.906Z,85.10
2019-03-27T10:13:24.775Z,84.70
2019-03-27T10:15:54.161Z,85.10
2019-03-27T10:18:23.588Z,84.90
2019-03-27T10:20:52.965Z,85.60
2019-03-27T10:23:22.319Z,84.50
2019-03-27T10:25:51.701Z,84.50
2019-03-27T10:28:21.027Z,84.60
2019-03-27T10:30:50.352Z,85.30
2019-03-27T10:33:19.695Z,85.50
2019-03-27T10:35:49.068Z,85.40
2019-03-27T10:38:18.467Z,85.30
2019-03-27T10:40:47.894Z,85.90
2019-03-27T10:43:17.296Z,85.90
2019-03-27T10:45:46.719Z,84.80
2019-03-27T10:48:16.157Z,84.60
2019-03-27T10:50:45.523Z,84.00
2019-03-27T10:53:14.847Z,84.90
2019-03-27T10:55:44.167Z,84.70
2019-03-27T10:58:13.511Z,83.90
2019-03-27T11:00:45.255Z,83.50
2019-03-27T11:03:14.667Z,83.00
2019-03-27T11:05:44.034Z,82.60
2019-03-27T11:08:13.459Z,82.70
2019-03-27T11:10:43.272Z,81.90
2019-03-27T11:13:12.675Z,81.10
2019-03-27T11:15:42.220Z,80.90
2019-03-27T11:18:11.618Z,80.50
2019-03-27T11:20:44.997Z,80.40
2019-03-27T11:23:14.329Z,80.50
2019-03-27T11:25:43.979Z,80.50
2019-03-27T11:28:14.806Z,80.60
2019-03-27T11:30:48.119Z,80.70
2019-03-27T11:33:15.607Z,82.00
2019-03-27T11:35:45.191Z,81.80
2019-03-27T11:38:14.753Z,82.10
2019-03-27T11:40:44.859Z,81.30
2019-03-27T11:43:14.287Z,80.40
2019-03-27T11:45:44.205Z,80.20
2019-03-27T11:48:15.072Z,80.80
2019-03-27T11:50:45.551Z,80.40
2019-03-27T11:53:15.347Z,79.80
2019-03-27T11:55:45.013Z,79.80
2019-03-27T11:58:15.015Z,78.50
2019-03-27T12:00:54.380Z,79.20
2019-03-27T12:03:17.212Z,80.20
2019-03-27T12:05:47.547Z,80.40
2019-03-27T12:08:17.038Z,79.50
2019-03-27T12:10:46.467Z,78.10
2019-03-27T12:13:15.839Z,77.20
2019-03-27T12:15:45.221Z,75.10
2019-03-27T12:18:15.761Z,74.60
2019-03-27T12:20:58.146Z,75.20
2019-03-27T12:23:16.640Z,76.10
2019-03-27T12:25:45.985Z,77.40
2019-03-27T12:28:15.384Z,78.10
2019-03-27T12:30:44.750Z,78.30
2019-03-27T12:33:14.164Z,78.10
2019-03-27T12:35:43.562Z,78.70
2019-03-27T12:38:13.024Z,79.20
2019-03-27T12:40:42.368Z,80.00
2019-03-27T12:43:11.770Z,80.40
2019-03-27T12:45:41.170Z,80.10
2019-03-27T12:48:10.527Z,80.20
2019-03-27T12:50:40.083Z,80.10
2019-03-27T12:53:09.472Z,80.70
2019-03-27T12:55:38.834Z,80.70
2019-03-27T12:58:11.529Z,81.50
2019-03-27T13:00:39.574Z,82.00
2019-03-27T13:03:08.979Z,81.70
2019-03-27T13:05:38.326Z,81.90
2019-03-27T13:08:07.682Z,81.50
2019-03-27T13:10:37.010Z,82.20
2019-03-27T13:13:06.351Z,82.30
2019-03-27T13:15:35.714Z,82.90
2019-03-27T13:18:05.123Z,83.10
2019-03-27T13:20:34.504Z,82.90
2019-03-27T13:23:04.714Z,83.70
2019-03-27T13:25:34.052Z,84.40
2019-03-27T13:28:03.393Z,84.20
2019-03-27T13:30:32.733Z,83.00
2019-03-27T13:33:02.188Z,82.80
2019-03-27T13:35:31.699Z,83.60
2019-03-27T13:38:01.120Z,85.50
2019-03-27T13:40:30.527Z,84.80
2019-03-27T13:42:59.873Z,83.10
2019-03-27T13:45:29.320Z,83.10
2019-03-27T13:47:58.648Z,82.60
2019-03-27T13:50:29.027Z,84.30
2019-03-27T13:52:58.360Z,84.50
2019-03-27T13:55:27.764Z,85.30
2019-03-27T13:57:57.096Z,85.60
2019-03-27T14:00:26.522Z,86.50
2019-03-27T14:02:55.908Z,86.50
2019-03-27T14:05:26.395Z,87.50
2019-03-27T14:07:55.816Z,89.10
2019-03-27T14:10:25.343Z,89.40
2019-03-27T14:13:03.659Z,90.10
2019-03-27T14:15:33.138Z,90.30
2019-03-27T14:18:02.548Z,90.20
2019-03-27T14:20:33.375Z,90.50
2019-03-27T14:23:02.822Z,91.00
2019-03-27T14:25:33.631Z,90.90
2019-03-27T14:28:03.470Z,91.80
2019-03-27T14:30:38.751Z,92.00
2019-03-27T14:33:08.198Z,92.10
2019-03-27T14:35:37.587Z,92.30
2019-03-27T14:38:08.594Z,92.60
2019-03-27T14:40:37.961Z,93.70
2019-03-27T14:43:07.402Z,94.30
2019-03-27T14:45:36.818Z,94.80
2019-03-27T14:48:06.230Z,95.00
2019-03-27T14:50:35.600Z,94.80
2019-03-27T14:53:06.163Z,94.50
2019-03-27T14:55:35.654Z,93.80
2019-03-27T14:58:05.862Z,93.60
2019-03-27T15:00:35.206Z,93.00
2019-03-27T15:03:04.601Z,91.90
2019-03-27T15:05:33.932Z,91.60
2019-03-27T15:08:04.400Z,90.00
2019-03-27T15:10:34.134Z,89.10
2019-03-27T15:13:03.475Z,87.50
2019-03-27T15:15:33.979Z,88.00
2019-03-27T15:18:03.394Z,88.30
2019-03-27T15:20:32.722Z,89.00
2019-03-27T15:23:02.161Z,88.80
2019-03-27T15:25:31.553Z,89.10
2019-03-27T15:28:01.054Z,88.20
2019-03-27T15:30:30.500Z,87.30
2019-03-27T15:32:59.939Z,86.30
2019-03-27T15:35:29.311Z,84.80
2019-03-27T15:37:58.690Z,84.10
2019-03-27T15:40:39.943Z,83.80
2019-03-27T15:43:09.370Z,84.00
2019-03-27T15:45:38.783Z,83.80
2019-03-27T15:48:08.173Z,84.30
2019-03-27T15:50:37.548Z,85.00
2019-03-27T15:53:07.020Z,85.90
2019-03-27T15:55:36.479Z,86.30
2019-03-27T15:58:05.919Z,85.80
2019-03-27T16:00:35.248Z,86.00
2019-03-27T16:03:04.585Z,85.90
2019-03-27T16:05:34.075Z,85.80
2019-03-27T16:08:03.468Z,86.10
2019-03-27T16:10:32.853Z,85.60
2019-03-27T16:13:02.187Z,85.40
2019-03-27T16:15:32.239Z,85.10
2019-03-27T16:18:10.612Z,85.40
2019-03-27T16:20:37.589Z,85.40
2019-03-27T16:23:08.357Z,85.60
2019-03-27T16:25:37.828Z,85.70
2019-03-27T16:28:07.379Z,85.60
2019-03-27T16:30:36.789Z,85.90
2019-03-27T16:33:06.152Z,85.30
2019-03-27T16:35:35.540Z,84.80
2019-03-27T16:38:04.960Z,85.20
2019-03-27T16:40:45.223Z,85.40
2019-03-27T16:43:14.722Z,85.30
2019-03-27T16:45:44.061Z,85.40
2019-03-27T16:48:13.665Z,86.20
2019-03-27T16:50:43.067Z,86.00
2019-03-27T16:53:12.479Z,86.40
2019-03-27T16:55:41.970Z,86.30
2019-03-27T16:58:11.413Z,86.40
2019-03-27T17:00:40.829Z,86.70
2019-03-27T17:03:10.184Z,86.70
2019-03-27T17:05:53.023Z,86.80
2019-03-27T17:08:10.705Z,86.80
2019-03-27T17:10:40.106Z,87.10
2019-03-27T17:13:09.508Z,86.90
2019-03-27T17:15:38.928Z,86.90
2019-03-27T17:18:09.423Z,87.00
2019-03-27T17:20:38.829Z,86.90
2019-03-27T17:23:17.930Z,87.20
2019-03-27T17:25:39.792Z,87.30
2019-03-27T17:28:09.235Z,87.80
2019-03-27T17:30:38.566Z,88.30
2019-03-27T17:33:07.951Z,89.10
2019-03-27T17:35:37.297Z,89.70
2019-03-27T17:38:10.855Z,90.10
2019-03-27T17:40:39.219Z,90.10
2019-03-27T17:43:08.639Z,90.20
2019-03-27T17:45:37.999Z,90.20
2019-03-27T17:48:07.336Z,90.20
2019-03-27T17:50:36.682Z,90.10
2019-03-27T17:53:09.084Z,90.20
2019-03-27T17:55:38.480Z,90.20
2019-03-27T17:58:07.879Z,90.30
2019-03-27T18:00:49.276Z,90.20
2019-03-27T18:03:18.753Z,90.20
2019-03-27T18:05:48.207Z,90.30
2019-03-27T18:08:17.555Z,90.40
2019-03-27T18:10:46.947Z,90.40
2019-03-27T18:13:16.366Z,90.40
2019-03-27T18:15:45.809Z,90.40
2019-03-27T18:18:15.241Z,90.50
2019-03-27T18:20:44.612Z,90.50
2019-03-27T18:23:13.956Z,90.70
2019-03-27T18:25:43.376Z,90.80
2019-03-27T18:28:12.841Z,91.20
2019-03-27T18:30:43.255Z,91.20
2019-03-27T18:33:12.655Z,91.40
2019-03-27T18:35:42.087Z,91.60
2019-03-27T18:38:11.505Z,91.80
2019-03-27T18:40:40.954Z,92.00
2019-03-27T18:43:10.277Z,92.20
2019-03-27T18:45:55.329Z,92.20
2019-03-27T18:48:27.788Z,92.40
2019-03-27T18:50:57.191Z,92.70
2019-03-27T18:53:26.541Z,92.80
2019-03-27T18:55:55.931Z,92.90
2019-03-27T18:58:25.351Z,93.30
2019-03-27T19:00:54.700Z,93.20
2019-03-27T19:03:24.116Z,93.40
2019-03-27T19:05:53.482Z,93.60
2019-03-27T19:08:22.892Z,94.00
2019-03-27T19:10:52.223Z,94.20
2019-03-27T19:13:25.026Z,94.30
2019-03-27T19:15:54.512Z,94.40
2019-03-27T19:18:23.911Z,94.40
2019-03-27T19:20:53.274Z,94.50
2019-03-27T19:23:22.702Z,94.60
2019-03-27T19:25:52.157Z,94.60
2019-03-27T19:28:22.010Z,95.00
2019-03-27T19:30:51.463Z,94.80
2019-03-27T19:33:20.892Z,94.80
2019-03-27T19:35:52.932Z,94.90
2019-03-27T19:38:22.348Z,94.80
2019-03-27T19:40:51.858Z,94.70
2019-03-27T19:43:21.436Z,94.80
2019-03-27T19:45:51.009Z,94.60
2019-03-27T19:48:20.443Z,94.50
2019-03-27T19:50:49.938Z,94.40
2019-03-27T19:53:19.316Z,94.40
2019-03-27T19:55:48.696Z,93.80
2019-03-27T19:58:18.067Z,94.20
2019-03-27T20:00:47.497Z,94.20
2019-03-27T20:03:16.958Z,94.00
2019-03-27T20:05:46.438Z,94.00
2019-03-27T20:08:16.004Z,93.90
2019-03-27T20:10:45.590Z,93.90
2019-03-27T20:13:16.725Z,93.90
2019-03-27T20:15:46.188Z,93.80
2019-03-27T20:18:15.713Z,93.90
2019-03-27T20:20:46.323Z,94.30
2019-03-27T20:23:15.790Z,94.70
2019-03-27T20:25:45.295Z,95.10
2019-03-27T20:28:14.736Z,95.30
2019-03-27T20:30:44.312Z,95.70
2019-03-27T20:33:14.914Z,95.90
2019-03-27T20:35:45.969Z,96.10
2019-03-27T20:38:15.326Z,96.60
2019-03-27T20:40:44.933Z,96.90
2019-03-27T20:43:14.490Z,97.10
2019-03-27T20:45:44.012Z,97.60
2019-03-27T20:48:13.698Z,97.50
2019-03-27T20:50:44.992Z,97.50
2019-03-27T20:53:15.153Z,97.40
2019-03-27T20:55:44.960Z,97.50
2019-03-27T20:58:15.026Z,97.70
2019-03-27T21:00:44.507Z,98.00
2019-03-27T21:03:13.899Z,98.20
2019-03-27T21:05:43.247Z,98.40
2019-03-27T21:08:12.623Z,98.30
2019-03-27T21:10:42.028Z,98.40
2019-03-27T21:13:11.441Z,98.60
2019-03-27T21:15:40.948Z,98.90
2019-03-27T21:18:10.295Z,99.10
2019-03-27T21:20:39.660Z,99.30
2019-03-27T21:23:09.028Z,99.40
2019-03-27T21:25:38.450Z,99.60
2019-03-27T21:28:07.866Z,99.70
2019-03-27T21:30:37.350Z,99.80
2019-03-27T21:33:06.799Z,99.90
2019-03-27T21:35:36.323Z,99.90
2019-03-27T21:38:07.855Z,99.90
2019-03-27T21:40:37.315Z,99.90
2019-03-27T21:43:06.708Z,99.90
2019-03-27T21:45:36.081Z,99.90
2019-03-27T21:48:11.511Z,99.90
2019-03-27T21:50:40.921Z,99.90
2019-03-27T21:53:10.254Z,99.90
2019-03-27T21:55:43.064Z,99.90
2019-03-27T21:58:11.999Z,99.90
2019-03-27T22:00:41.429Z,99.90
2019-03-27T22:03:11.133Z,99.90
2019-03-27T22:05:40.615Z,99.90
2019-03-27T22:08:10.020Z,99.90
2019-03-27T22:10:41.032Z,99.90
2019-03-27T22:13:10.360Z,99.90
2019-03-27T22:15:39.789Z,99.90
2019-03-27T22:18:09.243Z,99.90
2019-03-27T22:20:39.796Z,99.90
2019-03-27T22:23:09.465Z,99.90
2019-03-27T22:25:38.949Z,99.90
2019-03-27T22:28:09.476Z,99.90
2019-03-27T22:30:42.473Z,99.90
2019-03-27T22:33:11.976Z,99.90
2019-03-27T22:35:42.224Z,99.90
2019-03-27T22:38:11.633Z,99.90
2019-03-27T22:40:55.561Z,99.90
2019-03-27T22:43:24.894Z,99.90
2019-03-27T22:45:54.271Z,99.90
2019-03-27T22:48:28.859Z,99.90
2019-03-27T22:51:01.670Z,99.90
2019-03-27T22:53:31.089Z,99.90
2019-03-27T22:56:00.587Z,99.90
2019-03-27T22:58:31.207Z,99.90
2019-03-27T23:01:01.053Z,99.90
2019-03-27T23:03:31.621Z,99.90
2019-03-27T23:06:04.836Z,99.90
2019-03-27T23:08:34.258Z,99.90
2019-03-27T23:11:03.814Z,99.90
2019-03-27T23:13:34.067Z,99.90
2019-03-27T23:16:03.387Z,99.90
2019-03-27T23:18:33.226Z,99.90
2019-03-27T23:21:02.942Z,99.90
2019-03-27T23:23:32.677Z,99.90
2019-03-27T23:26:03.615Z,99.90
2019-03-27T23:28:33.318Z,99.90
2019-03-27T23:31:02.786Z,99.90
2019-03-27T23:33:32.272Z,99.90
2019-03-27T23:36:06.317Z,99.90
2019-03-27T23:38:35.910Z,99.90
2019-03-27T23:41:06.375Z,99.90
2019-03-27T23:43:35.762Z,99.90
2019-03-27T23:46:05.281Z,99.90
2019-03-27T23:48:34.730Z,99.90
2019-03-27T23:51:04.248Z,99.90
2019-03-27T23:53:33.763Z,99.90
2019-03-27T23:56:15.600Z,99.90
2019-03-27T23:58:35.105Z,99.90
